Time;durP1;ratioP1;P1;durP2;ratioP2;P2;SDS_P1;SDS_P2;PMS_P1;PMS_P2;Temp;Humidity;BMP_temperature;BMP_pressure;BME280_temperature;BME280_humidity;BME280_pressure;Samples;Min_cycle;Max_cycle;Signal;HPM_P1;HPM_P2
2023/08/19 00:00:20;;;;;;;30.03;27.17;;;21.00;99.90;;;;;;5156926;27;20082;-73
2023/08/19 00:02:46;;;;;;;30.67;27.77;;;21.00;99.90;;;;;;5138160;27;20042;-73
2023/08/19 00:05:12;;;;;;;30.80;27.87;;;20.90;99.90;;;;;;5156845;27;20091;-73
2023/08/19 00:07:37;;;;;;;29.93;27.03;;;20.90;99.90;;;;;;5138486;27;20041;-74
2023/08/19 00:10:04;;;;;;;31.70;28.30;;;20.90;99.90;;;;;;5156410;27;20043;-73
2023/08/19 00:12:30;;;;;;;31.07;28.07;;;20.90;99.90;;;;;;5156627;27;20406;-73
2023/08/19 00:14:56;;;;;;;29.77;26.87;;;20.90;99.90;;;;;;5137584;27;20513;-73
2023/08/19 00:17:23;;;;;;;30.17;27.37;;;20.90;99.90;;;;;;5157095;27;20050;-73
2023/08/19 00:19:49;;;;;;;31.97;28.87;;;20.90;99.90;;;;;;5156168;27;20046;-73
2023/08/19 00:22:15;;;;;;;33.60;30.50;;;20.90;99.90;;;;;;5156454;27;20053;-73
2023/08/19 00:24:40;;;;;;;31.50;28.17;;;20.90;99.90;;;;;;5156593;27;20042;-73
2023/08/19 00:27:06;;;;;;;31.63;28.40;;;20.80;99.90;;;;;;5156112;27;20550;-73
2023/08/19 00:29:32;;;;;;;30.40;27.50;;;20.80;99.90;;;;;;5156025;27;20042;-73
2023/08/19 00:31:58;;;;;;;32.53;29.30;;;20.80;99.90;;;;;;5155958;27;20046;-73
2023/08/19 00:34:23;;;;;;;30.60;27.50;;;20.80;99.90;;;;;;5156280;27;20068;-73
2023/08/19 00:36:49;;;;;;;30.00;27.07;;;20.80;99.90;;;;;;5155913;27;20047;-73
2023/08/19 00:39:15;;;;;;;30.47;27.40;;;20.80;99.90;;;;;;5156095;27;20386;-73
2023/08/19 00:41:40;;;;;;;30.60;27.60;;;20.70;99.90;;;;;;5137619;27;20046;-73
2023/08/19 00:44:07;;;;;;;31.80;28.73;;;20.70;99.90;;;;;;5137228;27;20075;-73
2023/08/19 00:46:33;;;;;;;30.47;27.57;;;20.70;99.90;;;;;;5156196;27;20047;-73
2023/08/19 00:49:00;;;;;;;30.90;27.90;;;20.70;99.90;;;;;;5155679;27;20043;-73
2023/08/19 00:51:26;;;;;;;31.23;28.23;;;20.60;99.90;;;;;;5137590;27;20039;-73
2023/08/19 00:53:53;;;;;;;30.40;27.30;;;20.60;99.90;;;;;;5155620;27;20049;-73
2023/08/19 00:56:19;;;;;;;30.40;27.50;;;20.60;99.90;;;;;;5137467;27;20069;-73
2023/08/19 00:58:45;;;;;;;30.47;27.27;;;20.60;99.90;;;;;;5155671;27;20463;-74
2023/08/19 01:01:11;;;;;;;30.40;27.27;;;20.60;99.90;;;;;;5155274;27;20404;-73
2023/08/19 01:03:37;;;;;;;31.70;28.70;;;20.60;99.90;;;;;;5155801;27;20131;-73
2023/08/19 01:06:21;;;;;;;30.93;27.80;;;20.60;99.90;;;;;;5136907;27;20057;-74
2023/08/19 01:08:55;;;;;;;31.23;28.17;;;20.60;99.90;;;;;;5136914;27;20050;-73
2023/08/19 01:11:37;;;;;;;30.05;27.08;;;20.60;99.90;;;;;;5155839;27;20039;-73
2023/08/19 01:14:17;;;;;;;31.53;28.47;;;20.60;99.90;;;;;;5155311;27;20050;-73
2023/08/19 01:16:47;;;;;;;29.93;27.07;;;20.60;99.90;;;;;;5155497;27;20489;-73
2023/08/19 01:19:23;;;;;;;29.67;26.77;;;20.60;99.90;;;;;;5155388;27;20038;-73
2023/08/19 01:21:57;;;;;;;28.93;26.13;;;20.50;99.90;;;;;;5136919;27;20085;-73
2023/08/19 01:24:27;;;;;;;30.57;26.80;;;20.50;99.90;;;;;;5155733;27;20042;-73
2023/08/19 01:26:53;;;;;;;28.03;25.17;;;20.50;99.90;;;;;;5155154;27;20122;-73
2023/08/19 01:29:19;;;;;;;29.47;26.43;;;20.50;99.90;;;;;;5155400;27;20489;-73
2023/08/19 01:31:45;;;;;;;30.13;27.13;;;20.50;99.90;;;;;;5155315;27;20410;-73
2023/08/19 01:34:11;;;;;;;28.77;26.07;;;20.50;99.90;;;;;;5154813;27;20057;-73
2023/08/19 01:36:44;;;;;;;30.37;27.43;;;20.50;99.90;;;;;;5155218;27;20055;-73
2023/08/19 01:39:10;;;;;;;30.33;27.23;;;20.50;99.90;;;;;;5154802;27;20240;-73
2023/08/19 01:41:37;;;;;;;30.20;27.17;;;20.50;99.90;;;;;;5155103;27;20564;-75
2023/08/19 01:44:03;;;;;;;30.73;27.50;;;20.50;99.90;;;;;;5154779;27;20054;-73
2023/08/19 01:46:29;;;;;;;30.07;27.13;;;20.50;99.90;;;;;;5136734;27;20051;-73
2023/08/19 01:48:55;;;;;;;29.47;26.80;;;20.50;99.90;;;;;;5154306;27;20451;-73
2023/08/19 01:51:21;;;;;;;29.70;26.80;;;20.40;99.90;;;;;;5154883;27;20053;-73
2023/08/19 01:53:47;;;;;;;29.90;27.00;;;20.40;99.90;;;;;;5154858;27;20129;-73
2023/08/19 01:56:13;;;;;;;28.53;25.83;;;20.40;99.90;;;;;;5154588;27;20089;-73
2023/08/19 01:58:38;;;;;;;29.63;26.60;;;20.40;99.90;;;;;;5154796;27;20086;-73
2023/08/19 02:01:04;;;;;;;28.60;25.90;;;20.40;99.90;;;;;;5154609;27;20043;-73
2023/08/19 02:03:30;;;;;;;28.90;26.27;;;20.40;99.90;;;;;;5136011;27;20043;-74
2023/08/19 02:05:55;;;;;;;29.13;26.40;;;20.40;99.90;;;;;;5154843;27;20043;-74
2023/08/19 02:08:21;;;;;;;29.73;26.73;;;20.40;99.90;;;;;;5154902;27;20082;-73
2023/08/19 02:10:47;;;;;;;30.60;27.77;;;20.40;99.90;;;;;;5154872;27;20524;-73
2023/08/19 02:13:13;;;;;;;29.60;26.70;;;20.40;99.90;;;;;;5154489;27;20525;-73
2023/08/19 02:15:38;;;;;;;29.97;26.87;;;20.40;99.90;;;;;;5154954;27;20054;-73
2023/08/19 02:18:04;;;;;;;29.20;26.23;;;20.40;99.90;;;;;;5154109;27;20126;-73
2023/08/19 02:20:30;;;;;;;28.23;25.37;;;20.40;99.90;;;;;;5154624;27;20031;-73
2023/08/19 02:22:58;;;;;;;28.03;25.33;;;20.40;99.90;;;;;;5154329;27;20100;-73
2023/08/19 02:25:24;;;;;;;28.47;25.47;;;20.40;99.90;;;;;;5154592;27;20039;-73
2023/08/19 02:27:50;;;;;;;28.07;25.40;;;20.40;99.90;;;;;;5154720;27;20050;-73
2023/08/19 02:30:15;;;;;;;29.07;26.27;;;20.40;99.90;;;;;;5154301;27;20470;-74
2023/08/19 02:32:41;;;;;;;27.20;24.63;;;20.40;99.90;;;;;;5154633;27;20072;-73
2023/08/19 02:35:08;;;;;;;28.63;25.90;;;20.40;99.90;;;;;;5154197;27;20051;-73
2023/08/19 02:37:33;;;;;;;28.60;25.90;;;20.40;99.90;;;;;;5154752;27;20046;-73
2023/08/19 02:39:59;;;;;;;29.57;26.23;;;20.40;99.90;;;;;;5154059;27;20501;-74
2023/08/19 02:42:25;;;;;;;28.87;26.13;;;20.40;99.90;;;;;;5154382;27;20070;-73
2023/08/19 02:44:50;;;;;;;28.87;25.97;;;20.30;99.90;;;;;;5154169;27;20062;-73
2023/08/19 02:47:16;;;;;;;29.80;26.97;;;20.40;99.90;;;;;;5135638;27;20087;-73
2023/08/19 02:49:43;;;;;;;27.83;25.07;;;20.30;99.90;;;;;;5136063;27;20043;-73
2023/08/19 02:52:09;;;;;;;28.87;26.17;;;20.30;99.90;;;;;;5154119;27;20051;-74
2023/08/19 02:54:35;;;;;;;28.37;25.77;;;20.30;99.90;;;;;;5136011;27;20043;-73
2023/08/19 02:57:01;;;;;;;27.80;25.10;;;20.30;99.90;;;;;;5153570;27;20444;-73
2023/08/19 02:59:26;;;;;;;26.77;24.33;;;20.30;99.90;;;;;;5135920;27;20047;-73
2023/08/19 03:01:52;;;;;;;27.00;24.47;;;20.30;99.90;;;;;;5154261;27;20046;-73
2023/08/19 03:04:18;;;;;;;25.70;23.00;;;20.40;99.90;;;;;;5153876;27;20083;-73
2023/08/19 03:06:44;;;;;;;27.97;25.37;;;20.40;99.90;;;;;;5154185;27;20083;-73
2023/08/19 03:09:09;;;;;;;26.70;24.10;;;20.30;99.90;;;;;;5153890;27;20049;-73
2023/08/19 03:11:36;;;;;;;27.53;24.63;;;20.30;99.90;;;;;;5154210;27;20119;-73
2023/08/19 03:14:02;;;;;;;25.70;23.20;;;20.30;99.90;;;;;;5154271;27;20095;-74
2023/08/19 03:16:28;;;;;;;26.83;24.30;;;20.30;99.90;;;;;;5157894;27;20046;-74
2023/08/19 03:18:54;;;;;;;25.77;23.27;;;20.30;99.90;;;;;;5157685;27;20080;-73
2023/08/19 03:21:19;;;;;;;26.20;23.60;;;20.30;99.90;;;;;;5157460;27;20131;-73
2023/08/19 03:23:45;;;;;;;25.80;23.40;;;20.30;99.90;;;;;;5157713;27;20062;-73
2023/08/19 03:26:11;;;;;;;25.67;23.03;;;20.40;99.90;;;;;;5157310;27;20051;-73
2023/08/19 03:28:37;;;;;;;25.10;22.70;;;20.40;99.90;;;;;;5157652;27;20102;-73
2023/08/19 03:31:10;;;;;;;24.83;22.43;;;20.40;99.90;;;;;;5157489;27;20039;-73
2023/08/19 03:33:36;;;;;;;25.90;23.47;;;20.40;99.90;;;;;;5157514;27;20043;-73
2023/08/19 03:36:03;;;;;;;26.30;23.70;;;20.40;99.90;;;;;;5139206;27;20051;-74
2023/08/19 03:38:29;;;;;;;25.67;22.97;;;20.50;99.90;;;;;;5138554;27;20046;-73
2023/08/19 03:40:54;;;;;;;25.43;22.93;;;20.50;99.90;;;;;;5157482;27;20091;-74
2023/08/19 03:43:20;;;;;;;25.20;22.80;;;20.50;99.90;;;;;;5138687;27;20043;-74
2023/08/19 03:45:46;;;;;;;24.87;22.43;;;20.50;99.90;;;;;;5156879;27;20051;-74
2023/08/19 03:48:12;;;;;;;23.47;21.17;;;20.50;99.90;;;;;;5156878;27;20056;-73
2023/08/19 03:50:38;;;;;;;25.53;23.03;;;20.40;99.90;;;;;;5157130;27;20504;-73
2023/08/19 03:53:04;;;;;;;22.90;20.60;;;20.50;99.90;;;;;;5157109;27;20039;-73
2023/08/19 03:55:30;;;;;;;25.33;22.77;;;20.40;99.90;;;;;;5156745;27;20127;-73
2023/08/19 03:57:56;;;;;;;23.63;21.43;;;20.50;99.90;;;;;;5138628;27;20038;-73
2023/08/19 04:00:22;;;;;;;23.53;21.10;;;20.40;99.90;;;;;;5156248;27;20177;-74
2023/08/19 04:02:48;;;;;;;22.73;20.57;;;20.50;99.90;;;;;;5157154;27;20043;-73
2023/08/19 04:05:14;;;;;;;23.07;20.70;;;20.40;99.90;;;;;;5156548;27;20484;-74
2023/08/19 04:07:40;;;;;;;24.27;21.70;;;20.40;99.90;;;;;;5156811;27;20043;-74
2023/08/19 04:10:07;;;;;;;23.17;20.77;;;20.40;99.90;;;;;;5156698;27;20039;-74
2023/08/19 04:12:33;;;;;;;23.47;21.17;;;20.40;99.90;;;;;;5156681;27;20043;-74
2023/08/19 04:14:59;;;;;;;23.80;21.30;;;20.50;99.90;;;;;;5156720;27;20505;-74
2023/08/19 04:17:25;;;;;;;23.33;20.90;;;20.50;99.90;;;;;;5156267;27;20045;-74
2023/08/19 04:19:51;;;;;;;23.23;20.83;;;20.50;99.90;;;;;;5138048;27;20050;-74
2023/08/19 04:22:17;;;;;;;22.83;20.37;;;20.50;99.90;;;;;;5156173;27;20502;-73
2023/08/19 04:24:50;;;;;;;23.93;21.50;;;20.50;99.90;;;;;;5156187;27;20121;-74
2023/08/19 04:27:16;;;;;;;23.33;20.90;;;20.50;99.90;;;;;;5156238;27;20368;-74
2023/08/19 04:29:41;;;;;;;22.87;20.57;;;20.50;99.90;;;;;;5156379;27;20042;-74
2023/08/19 04:32:07;;;;;;;22.80;20.50;;;20.50;99.90;;;;;;5156443;27;20078;-74
2023/08/19 04:34:33;;;;;;;23.90;21.70;;;20.60;99.90;;;;;;5155699;27;20053;-74
2023/08/19 04:36:58;;;;;;;22.10;19.77;;;20.60;99.90;;;;;;5156155;27;20084;-74
2023/08/19 04:39:24;;;;;;;22.47;20.30;;;20.60;99.90;;;;;;5155742;27;20038;-73
2023/08/19 04:41:50;;;;;;;21.73;19.73;;;20.60;99.90;;;;;;5156158;27;20057;-73
2023/08/19 04:44:16;;;;;;;20.87;18.63;;;20.60;99.90;;;;;;5155777;27;20054;-73
2023/08/19 04:46:43;;;;;;;21.43;19.23;;;20.70;99.90;;;;;;5120607;27;20173;-73
2023/08/19 04:49:08;;;;;;;21.80;19.60;;;20.70;99.90;;;;;;5137517;27;20050;-73
2023/08/19 04:51:35;;;;;;;22.20;20.00;;;20.70;99.90;;;;;;5155636;27;20042;-73
2023/08/19 04:54:01;;;;;;;21.03;18.80;;;20.80;99.90;;;;;;5155951;27;20121;-74
2023/08/19 04:56:27;;;;;;;22.10;19.90;;;20.80;99.90;;;;;;5155495;27;20107;-73
2023/08/19 04:58:52;;;;;;;20.20;18.30;;;20.80;99.90;;;;;;5155741;27;20088;-73
2023/08/19 05:01:19;;;;;;;20.80;18.50;;;20.80;99.90;;;;;;5155414;27;20129;-74
2023/08/19 05:03:44;;;;;;;19.93;17.83;;;20.80;99.90;;;;;;5137342;27;20050;-74
2023/08/19 05:06:10;;;;;;;20.20;18.07;;;20.80;99.90;;;;;;5155715;27;20046;-73
2023/08/19 05:08:36;;;;;;;20.57;18.27;;;20.80;99.90;;;;;;5155629;27;20129;-74
2023/08/19 05:11:01;;;;;;;20.43;18.33;;;20.80;99.90;;;;;;5155526;27;20042;-74
2023/08/19 05:13:27;;;;;;;19.70;17.70;;;20.90;99.90;;;;;;5154886;27;20046;-74
2023/08/19 05:15:53;;;;;;;20.50;18.33;;;20.90;99.90;;;;;;5155641;27;20042;-74
2023/08/19 05:18:19;;;;;;;19.27;17.37;;;20.90;99.90;;;;;;5136668;27;20047;-74
2023/08/19 05:20:44;;;;;;;20.60;17.90;;;20.90;99.90;;;;;;5155276;27;20038;-74
2023/08/19 05:23:11;;;;;;;19.33;17.33;;;20.90;99.90;;;;;;5136933;27;20106;-74
2023/08/19 05:25:37;;;;;;;20.27;18.17;;;20.90;99.90;;;;;;5155080;27;20069;-74
2023/08/19 05:28:03;;;;;;;19.70;17.80;;;20.90;99.90;;;;;;5155232;27;20039;-74
2023/08/19 05:30:29;;;;;;;23.13;18.87;;;21.00;99.90;;;;;;5154946;27;20057;-74
2023/08/19 05:32:54;;;;;;;19.70;17.73;;;21.00;99.90;;;;;;5155090;27;20533;-73
2023/08/19 05:35:20;;;;;;;23.10;17.77;;;21.00;99.90;;;;;;5154767;27;20046;-74
2023/08/19 05:37:46;;;;;;;19.40;17.40;;;21.00;99.90;;;;;;5154563;27;20089;-73
2023/08/19 05:40:11;;;;;;;18.90;17.00;;;21.10;99.90;;;;;;5136518;27;20467;-74
2023/08/19 05:42:37;;;;;;;18.37;16.47;;;21.10;99.90;;;;;;5154713;27;20047;-74
2023/08/19 05:45:03;;;;;;;19.93;17.90;;;21.10;99.90;;;;;;5115231;27;20051;-73
2023/08/19 05:47:29;;;;;;;17.50;15.83;;;21.10;99.90;;;;;;5133669;27;20402;-74
2023/08/19 05:49:55;;;;;;;18.63;16.90;;;21.10;99.90;;;;;;5133268;27;20043;-74
2023/08/19 05:52:20;;;;;;;18.53;16.73;;;21.20;99.90;;;;;;5133925;27;20390;-73
2023/08/19 05:54:46;;;;;;;18.70;16.83;;;21.20;99.90;;;;;;5134225;27;20053;-73
2023/08/19 05:57:12;;;;;;;19.53;16.93;;;21.20;99.90;;;;;;5134180;27;20055;-73
2023/08/19 05:59:38;;;;;;;18.80;16.87;;;21.20;99.90;;;;;;5133746;27;20050;-73
2023/08/19 06:02:03;;;;;;;17.53;15.70;;;21.30;99.90;;;;;;5134046;27;20086;-73
2023/08/19 06:04:29;;;;;;;16.97;14.77;;;21.30;99.90;;;;;;5132524;28;20094;-73
2023/08/19 06:06:55;;;;;;;17.67;15.93;;;21.30;99.90;;;;;;5134003;28;20054;-73
2023/08/19 06:09:21;;;;;;;19.43;16.10;;;21.40;99.90;;;;;;5133910;28;20046;-73
2023/08/19 06:11:51;;;;;;;18.53;16.17;;;21.40;99.90;;;;;;5133622;27;20122;-73
2023/08/19 06:14:18;;;;;;;18.77;15.60;;;21.40;99.90;;;;;;5133890;27;20050;-74
2023/08/19 06:16:45;;;;;;;17.70;15.80;;;21.40;99.90;;;;;;5133628;27;20132;-74
2023/08/19 06:19:12;;;;;;;18.30;16.40;;;21.40;99.90;;;;;;5133771;27;20048;-73
2023/08/19 06:21:38;;;;;;;18.53;15.27;;;21.50;99.90;;;;;;5133626;27;20432;-73
2023/08/19 06:24:04;;;;;;;17.10;15.27;;;21.50;99.90;;;;;;5132528;28;20043;-73
2023/08/19 06:26:30;;;;;;;17.43;15.63;;;21.40;99.90;;;;;;5132397;28;20043;-73
2023/08/19 06:28:56;;;;;;;16.57;14.90;;;21.40;99.90;;;;;;5133744;28;20046;-73
2023/08/19 06:31:22;;;;;;;17.90;14.70;;;21.50;99.90;;;;;;5098777;28;20490;-73
2023/08/19 06:33:49;;;;;;;17.30;14.70;;;21.50;99.90;;;;;;5133467;27;20078;-73
2023/08/19 06:36:20;;;;;;;15.70;14.10;;;21.50;99.90;;;;;;5132783;28;20047;-73
2023/08/19 06:39:02;;;;;;;15.93;14.25;;;21.50;99.90;;;;;;5133451;27;20058;-73
2023/08/19 06:41:30;;;;;;;16.83;12.93;;;21.50;99.90;;;;;;5133509;27;20043;-73
2023/08/19 06:43:57;;;;;;;14.23;12.73;;;21.50;99.90;;;;;;5133875;27;20047;-73
2023/08/19 06:46:23;;;;;;;15.57;13.33;;;21.60;99.90;;;;;;5149671;27;20046;-73
2023/08/19 06:48:50;;;;;;;13.57;11.93;;;21.60;99.90;;;;;;5155712;27;20047;-73
2023/08/19 06:51:16;;;;;;;14.37;12.17;;;21.70;99.90;;;;;;5158355;27;20419;-73
2023/08/19 06:53:42;;;;;;;13.10;11.70;;;21.70;99.90;;;;;;5139669;27;20173;-73
2023/08/19 06:56:17;;;;;;;14.80;11.90;;;21.80;99.90;;;;;;5157963;27;20042;-73
2023/08/19 06:58:48;;;;;;;13.20;10.40;;;21.90;99.90;;;;;;5157874;27;20050;-73
2023/08/19 07:01:26;;;;;;;11.87;10.60;;;22.00;99.90;;;;;;5158095;27;20053;-73
2023/08/19 07:03:53;;;;;;;13.43;11.77;;;22.00;99.90;;;;;;5157844;27;20043;-73
2023/08/19 07:06:22;;;;;;;14.00;11.40;;;22.10;99.90;;;;;;5157988;27;20051;-73
2023/08/19 07:08:48;;;;;;;12.57;11.27;;;22.10;99.90;;;;;;5157597;27;20095;-74
2023/08/19 07:11:15;;;;;;;14.53;11.23;;;22.20;99.90;;;;;;5139442;27;20054;-73
2023/08/19 07:13:42;;;;;;;14.20;10.90;;;22.20;99.90;;;;;;5157553;27;20125;-74
2023/08/19 07:16:10;;;;;;;15.33;9.77;;;22.20;99.90;;;;;;5157768;27;20043;-75
2023/08/19 07:18:41;;;;;;;12.30;11.00;;;22.30;99.90;;;;;;5157732;27;20043;-74
2023/08/19 07:21:13;;;;;;;12.37;10.37;;;22.40;99.90;;;;;;5157655;27;20057;-75
2023/08/19 07:23:45;;;;;;;14.00;10.23;;;22.40;99.90;;;;;;5157262;27;20497;-75
2023/08/19 07:26:11;;;;;;;13.50;10.00;;;22.50;99.90;;;;;;5157544;27;20060;-76
2023/08/19 07:28:37;;;;;;;14.43;9.87;;;22.50;99.90;;;;;;5157353;27;20066;-74
2023/08/19 07:31:06;;;;;;;15.27;10.83;;;22.60;99.90;;;;;;5157842;27;20082;-75
2023/08/19 07:33:32;;;;;;;12.30;9.77;;;22.60;99.90;;;;;;5157355;27;20101;-74
2023/08/19 07:35:58;;;;;;;13.50;10.30;;;22.70;99.90;;;;;;5139124;27;20498;-75
2023/08/19 07:38:24;;;;;;;11.73;9.53;;;22.70;99.90;;;;;;5157289;27;20470;-75
2023/08/19 07:40:50;;;;;;;12.97;10.83;;;22.70;99.90;;;;;;5157010;27;20049;-75
2023/08/19 07:43:15;;;;;;;12.27;9.90;;;22.70;99.90;;;;;;5138913;27;20047;-75
2023/08/19 07:45:41;;;;;;;14.40;9.83;;;22.70;99.90;;;;;;5156909;27;20059;-74
2023/08/19 07:48:07;;;;;;;10.47;9.40;;;22.70;99.90;;;;;;5157457;27;20050;-75
2023/08/19 07:50:32;;;;;;;10.93;9.40;;;22.70;99.90;;;;;;5138792;27;20459;-75
2023/08/19 07:52:58;;;;;;;10.93;9.50;;;22.70;99.90;;;;;;5156794;27;20071;-75
2023/08/19 07:55:24;;;;;;;16.13;9.93;;;22.80;99.90;;;;;;5138706;27;20043;-75
2023/08/19 07:57:50;;;;;;;10.27;8.37;;;22.80;99.90;;;;;;5138357;27;20045;-74
2023/08/19 08:00:15;;;;;;;14.87;10.10;;;22.80;99.90;;;;;;5155997;27;20050;-74
2023/08/19 08:02:41;;;;;;;14.30;10.03;;;22.80;99.90;;;;;;5138456;27;20050;-76
2023/08/19 08:05:07;;;;;;;16.80;10.47;;;22.90;99.90;;;;;;5156828;27;20058;-75
2023/08/19 08:07:33;;;;;;;11.00;8.77;;;22.90;99.90;;;;;;5156818;27;20043;-76
2023/08/19 08:09:58;;;;;;;12.27;9.23;;;22.90;99.90;;;;;;5156509;27;20042;-75
2023/08/19 08:12:24;;;;;;;11.40;8.60;;;22.90;99.90;;;;;;5156825;27;20095;-75
2023/08/19 08:14:50;;;;;;;10.53;8.10;;;22.90;99.90;;;;;;5120428;27;20102;-77
2023/08/19 08:17:15;;;;;;;12.30;8.27;;;23.10;99.90;;;;;;5156711;27;20039;-76
2023/08/19 08:19:41;;;;;;;9.77;8.57;;;23.10;99.90;;;;;;5156139;27;20110;-75
2023/08/19 08:22:07;;;;;;;9.97;8.23;;;23.20;99.90;;;;;;5156525;27;20057;-75
2023/08/19 08:24:33;;;;;;;9.60;8.27;;;23.40;99.90;;;;;;5138306;27;20070;-75
2023/08/19 08:26:59;;;;;;;13.60;8.37;;;23.70;99.90;;;;;;5156170;27;20482;-76
2023/08/19 08:29:25;;;;;;;9.97;7.97;;;23.90;99.90;;;;;;5156361;27;20474;-75
2023/08/19 08:31:50;;;;;;;13.20;7.83;;;24.30;99.90;;;;;;5156073;27;20175;-76
2023/08/19 08:34:16;;;;;;;10.60;7.90;;;24.50;99.90;;;;;;5156227;27;20042;-76
2023/08/19 08:36:42;;;;;;;10.43;7.97;;;24.80;99.90;;;;;;5156063;27;20107;-76
2023/08/19 08:39:08;;;;;;;12.13;7.70;;;25.10;99.90;;;;;;5137620;27;20046;-74
2023/08/19 08:41:39;;;;;;;10.30;7.30;;;25.40;99.90;;;;;;5156062;27;20402;-73
2023/08/19 08:44:06;;;;;;;9.60;7.00;;;25.40;99.90;;;;;;5155845;27;20046;-73
2023/08/19 08:46:36;;;;;;;9.43;6.37;;;25.50;99.90;;;;;;5155795;27;20418;-76
2023/08/19 08:49:05;;;;;;;10.13;6.90;;;25.40;99.90;;;;;;5137467;27;20054;-76
2023/08/19 08:51:30;;;;;;;11.43;6.63;;;25.40;99.90;;;;;;5156063;27;20099;-72
2023/08/19 08:53:56;;;;;;;8.57;5.87;;;25.30;99.90;;;;;;5154976;27;20038;-71
2023/08/19 08:56:25;;;;;;;9.10;6.77;;;25.30;99.90;;;;;;5137123;27;20053;-73
2023/08/19 08:58:51;;;;;;;11.60;7.10;;;25.30;99.90;;;;;;5152525;27;20039;-74
2023/08/19 09:01:19;;;;;;;11.83;7.20;;;25.20;99.90;;;;;;5136805;27;20051;-71
2023/08/19 09:03:46;;;;;;;10.87;6.27;;;25.20;99.90;;;;;;5136457;27;20088;-72
2023/08/19 09:06:16;;;;;;;10.13;6.87;;;25.30;99.90;;;;;;5155586;27;20046;-73
2023/08/19 09:09:02;;;;;;;10.73;6.60;;;25.30;99.90;;;;;;5137374;27;20049;-72
2023/08/19 09:11:33;;;;;;;9.33;6.70;;;25.40;99.90;;;;;;5155306;27;20054;-73
2023/08/19 09:14:37;;;;;;;11.70;8.17;;;25.50;99.90;;;;;;5154941;27;20035;-72
2023/08/19 09:17:02;;;;;;;12.30;7.50;;;25.50;99.90;;;;;;5017911;28;20045;-72
2023/08/19 09:19:28;;;;;;;9.27;7.90;;;25.60;99.90;;;;;;5051205;28;20439;-72
2023/08/19 09:21:54;;;;;;;10.87;8.23;;;25.60;99.90;;;;;;5081673;27;20053;-75
2023/08/19 09:24:20;;;;;;;12.93;7.47;;;25.50;99.90;;;;;;5155492;27;20039;-75
2023/08/19 09:26:46;;;;;;;11.83;7.90;;;25.60;99.90;;;;;;5155284;27;20046;-71
2023/08/19 09:29:12;;;;;;;11.87;7.50;;;25.70;99.90;;;;;;5136598;27;20178;-72
2023/08/19 09:31:40;;;;;;;11.97;7.40;;;25.80;99.90;;;;;;5155230;27;20046;-72
2023/08/19 09:34:06;;;;;;;10.63;7.00;;;25.80;99.90;;;;;;5136475;27;20046;-73
2023/08/19 09:36:32;;;;;;;8.10;6.33;;;25.80;99.90;;;;;;5136694;27;20046;-72
2023/08/19 09:38:58;;;;;;;9.90;7.57;;;26.00;99.90;;;;;;5119234;27;20082;-71
2023/08/19 09:41:29;;;;;;;13.27;8.03;;;26.10;99.90;;;;;;5155350;27;20046;-73
2023/08/19 09:43:57;;;;;;;10.03;7.10;;;26.20;99.90;;;;;;5136541;27;20050;-73
2023/08/19 09:46:33;;;;;;;13.93;7.77;;;26.10;99.90;;;;;;5136415;27;20112;-72
2023/08/19 09:48:59;;;;;;;11.13;8.63;;;26.10;99.90;;;;;;5154649;27;20478;-74
2023/08/19 09:51:27;;;;;;;11.20;8.60;;;26.00;99.90;;;;;;5154907;27;20050;-73
2023/08/19 09:53:53;;;;;;;11.63;8.53;;;25.90;99.90;;;;;;5154424;27;20491;-70
2023/08/19 09:56:26;;;;;;;12.48;8.02;;;25.80;99.90;;;;;;5155123;27;20046;-70
2023/08/19 09:58:54;;;;;;;9.47;8.07;;;25.70;99.90;;;;;;5136275;27;20043;-70
2023/08/19 10:01:22;;;;;;;10.60;8.13;;;25.70;99.90;;;;;;5154751;27;20058;-70
2023/08/19 10:03:49;;;;;;;11.57;8.30;;;25.60;99.90;;;;;;5154772;27;20130;-70
2023/08/19 10:06:19;;;;;;;11.93;7.93;;;25.50;99.90;;;;;;5154166;27;20077;-74
2023/08/19 10:08:49;;;;;;;12.27;8.33;;;25.40;99.90;;;;;;5154740;27;20050;-69
2023/08/19 10:11:16;;;;;;;11.13;7.70;;;25.40;99.90;;;;;;5154378;27;20095;-70
2023/08/19 10:13:45;;;;;;;11.70;8.57;;;25.40;99.90;;;;;;5154613;27;20121;-70
2023/08/19 10:16:16;;;;;;;9.90;8.90;;;25.60;99.90;;;;;;5154348;27;20107;-70
2023/08/19 10:18:45;;;;;;;11.27;8.77;;;25.70;99.90;;;;;;5136447;27;20094;-70
2023/08/19 10:21:14;;;;;;;11.60;9.10;;;25.70;99.90;;;;;;5154240;27;20074;-70
2023/08/19 10:23:42;;;;;;;15.13;9.70;;;25.80;99.90;;;;;;5155989;27;20061;-70
2023/08/19 10:26:08;;;;;;;12.57;9.87;;;25.80;99.90;;;;;;5158554;27;20496;-74
2023/08/19 10:28:34;;;;;;;13.03;9.73;;;25.90;99.90;;;;;;5158855;27;20082;-75
2023/08/19 10:31:14;;;;;;;11.98;10.40;;;26.00;99.90;;;;;;5158438;27;20115;-74
2023/08/19 10:33:43;;;;;;;15.03;10.97;;;26.00;99.90;;;;;;5140086;27;20047;-74
2023/08/19 10:36:17;;;;;;;15.77;9.77;;;26.00;99.90;;;;;;5158051;27;20188;-74
2023/08/19 10:38:56;;;;;;;12.90;10.02;;;26.00;99.90;;;;;;5158475;27;20043;-72
2023/08/19 10:41:30;;;;;;;11.45;10.25;;;26.00;99.90;;;;;;5158435;27;20058;-76
2023/08/19 10:44:02;;;;;;;13.30;10.53;;;26.00;99.90;;;;;;5122721;27;20486;-74
2023/08/19 10:46:32;;;;;;;13.03;11.20;;;26.10;99.90;;;;;;5158198;27;20303;-75
2023/08/19 10:48:57;;;;;;;14.07;12.68;;;26.20;99.90;;;;;;5158000;27;20057;-75
2023/08/19 10:51:58;;;;;;;19.85;13.60;;;26.20;99.90;;;;;;5158186;27;20122;-76
2023/08/19 10:54:42;;;;;;;16.00;11.85;;;26.20;99.90;;;;;;5158237;27;20054;-76
2023/08/19 10:57:14;;;;;;;17.80;14.68;;;26.30;99.90;;;;;;5158001;27;20052;-75
2023/08/19 10:59:45;;;;;;;16.27;14.63;;;26.50;99.90;;;;;;5158256;27;20042;-76
2023/08/19 11:02:12;;;;;;;15.70;14.02;;;26.60;99.90;;;;;;5157836;27;20514;-77
2023/08/19 11:04:41;;;;;;;16.48;14.77;;;26.80;99.90;;;;;;5158023;27;20086;-76
2023/08/19 11:07:07;;;;;;;23.17;17.50;;;26.90;99.90;;;;;;5157649;27;20046;-76
2023/08/19 11:09:34;;;;;;;16.15;14.55;;;26.90;99.90;;;;;;5157788;27;20466;-75
2023/08/19 11:12:00;;;;;;;20.33;17.95;;;26.90;99.90;;;;;;5157453;27;20043;-74
2023/08/19 11:14:26;;;;;;;23.95;20.25;;;26.90;99.90;;;;;;5139714;27;20042;-76
2023/08/19 11:16:56;;;;;;;25.42;22.42;;;26.80;99.90;;;;;;5159243;27;20375;-76
2023/08/19 11:19:22;;;;;;;25.02;20.77;;;26.60;99.90;;;;;;5166215;27;20119;-77
2023/08/19 11:21:49;;;;;;;25.23;22.73;;;26.50;99.90;;;;;;5150017;27;20163;-77
2023/08/19 11:24:15;;;;;;;26.63;24.02;;;26.30;99.90;;;;;;5167632;27;20482;-75
2023/08/19 11:26:42;;;;;;;27.70;24.90;;;26.20;99.90;;;;;;5163699;27;20118;-74
2023/08/19 11:29:08;;;;;;;29.38;26.30;;;26.10;99.90;;;;;;5157317;27;20038;-74
2023/08/19 11:31:38;;;;;;;34.00;29.83;;;25.90;99.90;;;;;;5157438;27;20166;-75
2023/08/19 11:34:11;;;;;;;34.33;30.65;;;25.80;99.90;;;;;;5157013;27;20046;-74
2023/08/19 11:36:39;;;;;;;33.30;29.67;;;25.70;99.90;;;;;;5156495;27;20051;-74
2023/08/19 11:39:06;;;;;;;35.22;31.48;;;25.60;99.90;;;;;;5157063;27;20050;-74
2023/08/19 11:41:33;;;;;;;34.72;30.92;;;25.40;99.90;;;;;;5157655;27;20085;-75
2023/08/19 11:44:00;;;;;;;33.00;29.52;;;25.30;99.90;;;;;;5157267;27;20054;-76
2023/08/19 11:46:33;;;;;;;32.27;28.90;;;25.20;99.90;;;;;;5156482;27;20170;-75
2023/08/19 11:49:05;;;;;;;32.30;27.30;;;25.20;99.90;;;;;;5157284;27;20129;-75
2023/08/19 11:51:31;;;;;;;33.03;26.43;;;25.10;99.90;;;;;;5157103;27;20089;-76
2023/08/19 11:54:06;;;;;;;26.10;23.30;;;25.10;99.90;;;;;;5138846;27;20078;-75
2023/08/19 11:56:50;;;;;;;;;;;25.00;99.90;;;;;;5157410;27;20101;-76
2023/08/19 11:59:16;;;;;;;21.40;18.07;;;25.00;99.90;;;;;;5156580;27;19918;-75
2023/08/19 12:01:45;;;;;;;19.63;16.77;;;25.00;99.90;;;;;;5156918;27;20078;-76
2023/08/19 12:04:12;;;;;;;18.43;15.47;;;25.00;99.90;;;;;;5156575;27;20055;-75
2023/08/19 12:06:38;;;;;;;17.37;14.73;;;25.00;99.90;;;;;;5156740;27;20043;-75
2023/08/19 12:09:05;;;;;;;17.50;14.00;;;25.00;99.90;;;;;;5156709;27;20039;-76
2023/08/19 12:11:34;;;;;;;15.33;11.63;;;25.00;99.90;;;;;;5156708;27;20454;-76
2023/08/19 12:14:00;;;;;;;13.67;10.03;;;25.10;99.90;;;;;;5121439;27;20142;-75
2023/08/19 12:16:26;;;;;;;15.07;11.70;;;25.10;99.90;;;;;;5156289;27;20149;-76
2023/08/19 12:18:52;;;;;;;18.57;12.43;;;25.10;99.90;;;;;;5156453;27;20046;-75
2023/08/19 12:21:18;;;;;;;14.03;10.97;;;25.20;99.90;;;;;;5156322;27;20038;-75
2023/08/19 12:23:43;;;;;;;13.93;8.97;;;25.20;99.90;;;;;;5156460;27;20210;-75
2023/08/19 12:26:09;;;;;;;10.40;7.83;;;25.20;99.90;;;;;;5156482;27;20051;-75
2023/08/19 12:28:35;;;;;;;11.43;7.93;;;25.20;99.90;;;;;;5156414;27;20390;-76
2023/08/19 12:31:00;;;;;;;11.37;8.07;;;25.20;99.90;;;;;;5156757;27;20368;-75